createdAt,value
2019-04-27T00:03:53.000Z,48.38
2019-04-27T00:13:53.000Z,48.182
2019-04-27T00:33:53.000Z,47.837
2019-04-27T00:53:54.000Z,47.665
2019-04-27T01:03:54.000Z,47.585
2019-04-27T01:13:54.000Z,47.429
2019-04-27T01:23:54.000Z,47.315
2019-04-27T01:33:55.000Z,47.222
2019-04-27T01:43:54.000Z,46.981
2019-04-27T02:03:54.000Z,46.666
2019-04-27T02:13:54.000Z,46.465
2019-04-27T02:23:54.000Z,46.178
2019-04-27T02:33:54.000Z,45.98
2019-04-27T02:43:55.000Z,45.865
2019-04-27T02:53:54.000Z,45.589
2019-04-27T03:03:55.000Z,45.476
2019-04-27T03:13:54.000Z,45.214
2019-04-27T03:23:58.000Z,44.927
2019-04-27T03:33:55.000Z,44.783
2019-04-27T03:43:54.000Z,44.639
2019-04-27T03:53:54.000Z,44.375
2019-04-27T04:03:54.000Z,44.413
2019-04-27T04:13:55.000Z,44.178
2019-04-27T04:23:54.000Z,44.233
2019-04-27T04:33:54.000Z,44.191
2019-04-27T04:43:54.000Z,44.19
2019-04-27T04:53:54.000Z,44.244
2019-04-27T05:03:54.000Z,44.254
2019-04-27T05:13:56.000Z,44.329
2019-04-27T05:23:54.000Z,44.264
2019-04-27T05:43:54.000Z,44.419
2019-04-27T05:53:54.000Z,44.584
2019-04-27T06:03:54.000Z,44.446
2019-04-27T06:13:58.000Z,44.29
2019-04-27T06:23:54.000Z,44.233
2019-04-27T06:33:54.000Z,43.59
2019-04-27T06:43:54.000Z,43.724
2019-04-27T06:53:54.000Z,43.772
2019-04-27T07:03:54.000Z,43.866
2019-04-27T07:13:55.000Z,43.999
2019-04-27T07:23:54.000Z,43.978
2019-04-27T07:33:54.000Z,44.064
2019-04-27T07:43:54.000Z,44.054
2019-04-27T07:53:54.000Z,44.077
2019-04-27T08:03:54.000Z,44.154
2019-04-27T08:13:55.000Z,44.077
2019-04-27T08:23:55.000Z,44.315
2019-04-27T08:33:54.000Z,44.154
2019-04-27T08:43:55.000Z,44.089
2019-04-27T08:53:55.000Z,44.185
2019-04-27T09:03:55.000Z,44.122
2019-04-27T09:13:55.000Z,44.176
2019-04-27T09:23:56.000Z,44.185
2019-04-27T09:33:55.000Z,44.319
2019-04-27T09:43:56.000Z,44.223
2019-04-27T09:53:57.000Z,44.138
2019-04-27T10:13:55.000Z,44.204
2019-04-27T10:23:56.000Z,44.15
2019-04-27T10:33:55.000Z,44.085
2019-04-27T10:43:55.000Z,44.171
2019-04-27T10:53:56.000Z,44.129
2019-04-27T11:03:56.000Z,44.141
2019-04-27T11:23:55.000Z,44.218
2019-04-27T11:33:55.000Z,44.109
2019-04-27T11:43:57.000Z,44.198
2019-04-27T11:53:55.000Z,44.218
2019-04-27T12:03:55.000Z,44.227
2019-04-27T12:13:55.000Z,44.292
2019-04-27T12:23:55.000Z,44.516
2019-04-27T12:33:55.000Z,44.241
2019-04-27T12:43:55.000Z,44.25
2019-04-27T12:53:55.000Z,44.671
2019-04-27T13:03:59.000Z,44.64
2019-04-27T13:13:55.000Z,44.462
2019-04-27T13:23:55.000Z,44.442
2019-04-27T13:33:57.000Z,44.54
2019-04-27T13:43:57.000Z,44.747
2019-04-27T13:53:58.000Z,44.597
2019-04-27T14:03:55.000Z,44.73
2019-04-27T14:13:55.000Z,44.688
2019-04-27T14:23:59.000Z,44.855
2019-04-27T14:33:55.000Z,44.732
2019-04-27T14:43:55.000Z,44.416
2019-04-27T14:53:55.000Z,44.381
2019-04-27T15:03:55.000Z,44.283
2019-04-27T15:13:55.000Z,44.283
2019-04-27T15:23:58.000Z,44.292
2019-04-27T15:33:57.000Z,44.291
2019-04-27T15:43:55.000Z,44.365
2019-04-27T15:53:55.000Z,44.342
2019-04-27T16:03:55.000Z,44.471
2019-04-27T16:13:55.000Z,44.714
2019-04-27T16:23:55.000Z,44.926
2019-04-27T16:33:59.000Z,44.992
2019-04-27T16:43:55.000Z,45.087
2019-04-27T16:53:55.000Z,45.085
2019-04-27T17:03:55.000Z,45.145
2019-04-27T17:13:56.000Z,45.186
2019-04-27T17:23:56.000Z,45.205
2019-04-27T17:33:56.000Z,45.35
2019-04-27T17:53:56.000Z,45.507
2019-04-27T18:03:59.000Z,45.65
2019-04-27T18:13:56.000Z,46.044
2019-04-27T18:23:57.000Z,45.892
2019-04-27T18:33:57.000Z,46.107
2019-04-27T18:43:56.000Z,46.57
2019-04-27T18:53:56.000Z,46.709
2019-04-27T19:03:57.000Z,46.667
2019-04-27T19:14:00.000Z,46.42
2019-04-27T19:23:57.000Z,46.453
2019-04-27T19:33:56.000Z,46.238
2019-04-27T19:43:56.000Z,46.228
2019-04-27T20:03:56.000Z,46.024
2019-04-27T20:13:57.000Z,46.065
2019-04-27T20:23:57.000Z,45.936
2019-04-27T20:43:56.000Z,46.186
2019-04-27T20:53:59.000Z,46.078
2019-04-27T21:03:56.000Z,46.205
2019-04-27T21:23:58.000Z,46.291
2019-04-27T21:34:00.000Z,46.175
2019-04-27T21:43:56.000Z,46.499
2019-04-27T21:53:56.000Z,46.573
2019-04-27T22:13:56.000Z,46.475
2019-04-27T22:23:56.000Z,46.559
2019-04-27T22:33:56.000Z,46.772
2019-04-27T22:43:56.000Z,46.586
2019-04-27T22:53:56.000Z,46.812
2019-04-27T23:03:56.000Z,47.211
2019-04-27T23:13:56.000Z,47.227
2019-04-27T23:23:57.000Z,47.298
2019-04-27T23:33:58.000Z,47.11
2019-04-27T23:43:58.000Z,47.18
2019-04-27T23:53:56.000Z,47.081
